createdAt,value
2019-02-28T00:00:47.680Z,83.67
2019-02-28T00:03:20.244Z,85.60
2019-02-28T00:05:50.543Z,78.03
2019-02-28T00:08:21.177Z,80.30
2019-02-28T00:10:51.716Z,86.65
2019-02-28T00:13:22.508Z,82.03
2019-02-28T00:15:53.262Z,84.67
2019-02-28T00:18:23.871Z,84.17
2019-02-28T00:20:54.425Z,86.27
2019-02-28T00:23:24.971Z,80.53
2019-02-28T00:25:55.641Z,84.83
2019-02-28T00:28:26.598Z,86.60
2019-02-28T00:30:57.231Z,79.90
2019-02-28T00:33:30.844Z,79.60
2019-02-28T00:35:59.999Z,81.97
2019-02-28T00:38:30.644Z,85.80
2019-02-28T00:41:01.588Z,89.20
2019-02-28T00:43:33.035Z,84.73
2019-02-28T00:46:03.852Z,87.37
2019-02-28T00:48:34.411Z,94.37
2019-02-28T00:51:04.983Z,80.53
2019-02-28T00:53:37.428Z,90.83
2019-02-28T00:56:07.693Z,93.17
2019-02-28T00:58:38.307Z,88.97
2019-02-28T01:01:11.488Z,99.07
2019-02-28T01:03:41.200Z,93.40
2019-02-28T01:06:11.792Z,92.63
2019-02-28T01:08:42.398Z,94.93
2019-02-28T01:11:13.927Z,95.20
2019-02-28T01:13:44.667Z,97.30
2019-02-28T01:16:16.106Z,85.67
2019-02-28T01:18:48.071Z,90.07
2019-02-28T01:21:23.702Z,92.97
2019-02-28T01:23:51.104Z,93.50
2019-02-28T01:26:21.787Z,104.53
2019-02-28T01:28:52.659Z,94.83
2019-02-28T01:31:23.251Z,95.43
2019-02-28T01:33:56.025Z,94.97
2019-02-28T01:36:26.194Z,100.93
2019-02-28T01:38:57.946Z,95.80
2019-02-28T01:41:29.130Z,103.53
2019-02-28T01:44:01.696Z,105.50
2019-02-28T01:46:31.835Z,100.30
2019-02-28T01:49:02.404Z,101.57
2019-02-28T01:51:36.612Z,102.73
2019-02-28T01:54:05.878Z,93.50
2019-02-28T01:56:37.830Z,102.70
2019-02-28T01:59:08.630Z,100.83
2019-02-28T02:01:39.411Z,105.67
2019-02-28T02:04:12.512Z,106.83
2019-02-28T02:06:44.319Z,106.13
2019-02-28T02:09:15.389Z,107.17
2019-02-28T02:11:45.950Z,94.47
2019-02-28T02:14:16.486Z,104.70
2019-02-28T02:16:47.427Z,101.70
2019-02-28T02:19:18.815Z,108.73
2019-02-28T02:21:49.487Z,99.90
2019-02-28T02:24:20.042Z,102.30
2019-02-28T02:26:51.730Z,110.17
2019-02-28T02:29:22.474Z,99.83
2019-02-28T02:31:53.042Z,104.40
2019-02-28T02:34:24.314Z,101.80
2019-02-28T02:36:56.237Z,102.87
2019-02-28T02:39:26.873Z,98.47
2019-02-28T02:41:57.449Z,105.60
2019-02-28T02:44:31.833Z,95.33
2019-02-28T02:47:00.208Z,100.33
2019-02-28T02:49:30.823Z,94.17
2019-02-28T02:52:01.343Z,100.97
2019-02-28T02:54:31.962Z,100.90
2019-02-28T02:57:02.510Z,95.37
2019-02-28T02:59:37.326Z,90.70
2019-02-28T03:02:05.606Z,90.70
2019-02-28T03:04:36.750Z,91.67
2019-02-28T03:07:07.619Z,80.50
2019-02-28T03:09:43.347Z,84.77
2019-02-28T03:12:10.895Z,85.17
2019-02-28T03:14:41.505Z,86.10
2019-02-28T03:17:12.262Z,89.23
2019-02-28T03:19:44.467Z,95.83
2019-02-28T03:22:15.449Z,90.20
2019-02-28T03:24:50.456Z,85.23
2019-02-28T03:27:20.133Z,77.70
2019-02-28T03:29:50.938Z,83.87
2019-02-28T03:32:21.597Z,82.77
2019-02-28T03:34:58.116Z,84.87
2019-02-28T03:37:24.369Z,83.07
2019-02-28T03:40:02.721Z,94.83
2019-02-28T03:42:28.874Z,83.77
2019-02-28T03:44:59.327Z,86.10
2019-02-28T03:47:30.156Z,87.70
2019-02-28T03:50:01.081Z,80.30
2019-02-28T03:52:32.196Z,83.00
2019-02-28T03:55:04.510Z,86.03
2019-02-28T03:57:35.064Z,83.27
2019-02-28T04:00:10.257Z,87.20
2019-02-28T04:02:40.818Z,82.27
2019-02-28T04:05:11.452Z,78.50
2019-02-28T04:07:43.264Z,85.77
2019-02-28T04:10:16.705Z,81.30
2019-02-28T04:12:47.093Z,85.10
2019-02-28T04:15:17.903Z,85.83
2019-02-28T04:17:48.442Z,73.70
2019-02-28T04:20:19.209Z,79.30
2019-02-28T04:22:58.834Z,79.97
2019-02-28T04:25:24.695Z,76.27
2019-02-28T04:27:55.706Z,68.87
2019-02-28T04:30:26.296Z,73.47
2019-02-28T04:33:01.053Z,68.77
2019-02-28T04:35:29.015Z,62.90
2019-02-28T04:37:59.677Z,67.20
2019-02-28T04:40:30.203Z,57.80
2019-02-28T04:43:00.766Z,67.03
2019-02-28T04:45:31.319Z,63.00
2019-02-28T04:48:01.915Z,62.07
2019-02-28T04:50:32.435Z,67.10
2019-02-28T04:53:03.022Z,66.30
2019-02-28T04:55:34.210Z,61.87
2019-02-28T04:58:05.831Z,49.97
2019-02-28T05:00:37.834Z,52.80
2019-02-28T05:03:08.669Z,57.50
2019-02-28T05:05:39.221Z,62.87
2019-02-28T05:08:09.777Z,54.03
2019-02-28T05:10:40.341Z,53.63
2019-02-28T05:13:11.398Z,56.60
2019-02-28T05:15:48.116Z,51.93
2019-02-28T05:18:18.675Z,53.17
2019-02-28T05:20:49.214Z,51.80
2019-02-28T05:23:19.782Z,47.13
2019-02-28T05:25:51.994Z,51.00
2019-02-28T05:28:22.456Z,54.00
2019-02-28T05:30:53.763Z,62.53
2019-02-28T05:33:24.407Z,51.13
2019-02-28T05:35:57.217Z,50.83
2019-02-28T05:38:27.347Z,51.37
2019-02-28T05:40:57.862Z,50.50
2019-02-28T05:43:29.175Z,54.53
2019-02-28T05:46:00.581Z,51.17
2019-02-28T05:48:31.075Z,45.37
2019-02-28T05:51:01.603Z,48.03
2019-02-28T05:53:32.136Z,50.93
2019-02-28T05:56:02.699Z,47.10
2019-02-28T05:58:36.375Z,49.63
2019-02-28T06:01:11.991Z,43.33
2019-02-28T06:03:41.063Z,47.70
2019-02-28T06:06:11.608Z,47.00
2019-02-28T06:08:42.144Z,48.13
2019-02-28T06:11:12.709Z,45.57
2019-02-28T06:13:43.264Z,42.53
2019-02-28T06:16:13.870Z,52.27
2019-02-28T06:18:44.778Z,39.73
2019-02-28T06:21:15.381Z,47.27
2019-02-28T06:23:45.906Z,41.20
2019-02-28T06:26:16.460Z,43.33
2019-02-28T06:28:47.047Z,42.67
2019-02-28T06:31:17.552Z,39.13
2019-02-28T06:33:48.226Z,45.50
2019-02-28T06:36:18.815Z,37.07
2019-02-28T06:38:51.534Z,29.77
2019-02-28T06:41:21.611Z,27.63
2019-02-28T06:43:53.095Z,30.73
2019-02-28T06:46:24.564Z,29.50
2019-02-28T06:49:01.612Z,29.70
2019-02-28T06:51:27.681Z,25.67
2019-02-28T06:53:58.212Z,25.90
2019-02-28T06:56:30.789Z,22.60
2019-02-28T06:59:00.923Z,26.10
2019-02-28T07:01:31.465Z,27.90
2019-02-28T07:04:02.006Z,24.12
2019-02-28T07:06:35.624Z,24.67
2019-02-28T07:09:06.463Z,20.40
2019-02-28T07:11:37.023Z,25.40
2019-02-28T07:14:12.933Z,26.80
2019-02-28T07:16:39.717Z,24.13
2019-02-28T07:19:10.260Z,20.10
2019-02-28T07:21:43.917Z,18.03
2019-02-28T07:24:13.714Z,19.07
2019-02-28T07:26:44.622Z,16.40
2019-02-28T07:29:15.185Z,15.47
2019-02-28T07:31:45.726Z,12.67
2019-02-28T07:34:19.351Z,16.37
2019-02-28T07:36:48.478Z,13.67
2019-02-28T07:39:19.043Z,13.47
2019-02-28T07:41:49.563Z,14.20
2019-02-28T07:44:22.235Z,12.37
2019-02-28T07:46:52.263Z,12.45
2019-02-28T07:49:22.792Z,7.77
2019-02-28T07:51:56.827Z,10.87
2019-02-28T07:54:25.514Z,8.70
2019-02-28T07:56:56.063Z,11.07
2019-02-28T07:59:26.607Z,10.57
2019-02-28T08:01:59.976Z,8.18
2019-02-28T08:04:29.325Z,10.43
2019-02-28T08:06:59.855Z,7.67
2019-02-28T08:09:31.571Z,7.03
2019-02-28T08:12:02.223Z,7.33
2019-02-28T08:14:32.745Z,5.93
2019-02-28T08:17:05.429Z,5.90
2019-02-28T08:19:35.490Z,4.05
2019-02-28T08:22:06.042Z,5.97
2019-02-28T08:24:36.707Z,6.33
2019-02-28T08:27:10.643Z,9.80
2019-02-28T08:29:44.793Z,3.05
2019-02-28T08:32:13.368Z,4.83
2019-02-28T08:34:47.243Z,7.30
2019-02-28T08:37:19.037Z,5.65
2019-02-28T08:39:49.973Z,4.53
2019-02-28T08:42:20.500Z,4.83
2019-02-28T08:44:51.011Z,4.03
2019-02-28T08:47:21.883Z,4.42
2019-02-28T08:49:52.603Z,3.20
2019-02-28T08:52:23.143Z,4.45
2019-02-28T08:54:53.629Z,3.75
2019-02-28T08:57:25.659Z,4.08
2019-02-28T08:59:57.076Z,2.52
2019-02-28T09:02:27.812Z,3.08
2019-02-28T09:04:58.379Z,3.08
2019-02-28T09:07:28.900Z,4.05
2019-02-28T09:09:59.459Z,3.02
2019-02-28T09:12:33.294Z,18.30
2019-02-28T09:15:02.815Z,3.20
2019-02-28T09:17:33.827Z,2.77
2019-02-28T09:20:07.430Z,2.30
2019-02-28T09:22:36.907Z,3.10
2019-02-28T09:25:09.270Z,1.92
2019-02-28T09:27:39.811Z,6.28
2019-02-28T09:30:19.871Z,1.42
2019-02-28T09:32:50.372Z,2.70
2019-02-28T09:35:20.919Z,2.72
2019-02-28T09:37:54.330Z,4.97
2019-02-28T09:40:25.824Z,2.00
2019-02-28T09:42:57.000Z,1.75
2019-02-28T09:45:27.556Z,1.98
2019-02-28T09:48:00.939Z,7.90
2019-02-28T09:50:30.403Z,1.70
2019-02-28T09:53:00.960Z,2.10
2019-02-28T09:55:35.282Z,1.42
2019-02-28T09:58:03.636Z,6.73
2019-02-28T10:00:34.171Z,1.32
2019-02-28T10:03:06.779Z,2.22
2019-02-28T10:05:39.013Z,1.42
2019-02-28T10:08:09.399Z,0.78
2019-02-28T10:10:39.937Z,1.10
2019-02-28T10:13:10.475Z,1.15
2019-02-28T10:15:41.826Z,0.80
2019-02-28T10:18:12.936Z,2.83
2019-02-28T10:20:43.572Z,0.70
2019-02-28T10:23:14.110Z,1.47
2019-02-28T10:25:45.619Z,1.17
2019-02-28T10:28:16.167Z,0.70
2019-02-28T10:30:47.270Z,0.88
2019-02-28T10:33:18.848Z,0.70
2019-02-28T10:35:49.376Z,1.65
2019-02-28T10:38:20.562Z,1.20
2019-02-28T10:40:52.467Z,0.87
2019-02-28T10:43:23.220Z,0.50
2019-02-28T10:45:53.759Z,0.83
2019-02-28T10:48:24.266Z,0.77
2019-02-28T10:50:54.808Z,1.57
2019-02-28T10:53:25.335Z,1.63
2019-02-28T10:55:59.087Z,1.23
2019-02-28T10:58:29.618Z,1.30
2019-02-28T11:01:00.161Z,1.17
2019-02-28T11:03:32.434Z,0.60
2019-02-28T11:06:02.831Z,3.10
2019-02-28T11:08:33.352Z,1.33
2019-02-28T11:11:07.394Z,1.97
2019-02-28T11:13:36.523Z,1.20
2019-02-28T11:16:07.026Z,0.60
2019-02-28T11:18:37.583Z,3.43
2019-02-28T11:21:08.552Z,0.20
2019-02-28T11:23:39.099Z,1.60
2019-02-28T11:26:10.484Z,1.40
2019-02-28T11:28:41.068Z,1.10
2019-02-28T11:31:11.703Z,0.80
2019-02-28T11:33:42.265Z,0.57
2019-02-28T11:36:12.800Z,1.23
2019-02-28T11:38:43.405Z,1.10
2019-02-28T11:41:15.479Z,1.97
2019-02-28T11:43:46.248Z,0.47
2019-02-28T11:46:16.880Z,0.83
2019-02-28T11:48:47.499Z,0.68
2019-02-28T11:51:18.534Z,0.97
2019-02-28T11:53:49.058Z,2.10
2019-02-28T11:56:19.600Z,0.77
2019-02-28T11:58:51.758Z,2.73
2019-02-28T12:01:27.279Z,1.80
2019-02-28T12:03:57.847Z,0.23
2019-02-28T12:06:28.367Z,2.70
2019-02-28T12:08:59.271Z,1.27
2019-02-28T12:11:29.799Z,0.33
2019-02-28T12:14:00.309Z,1.73
2019-02-28T12:16:30.817Z,0.50
2019-02-28T12:19:02.605Z,0.80
2019-02-28T12:21:37.645Z,1.63
2019-02-28T12:24:05.519Z,0.40
2019-02-28T12:26:36.025Z,0.73
2019-02-28T12:29:09.400Z,1.17
2019-02-28T12:31:38.690Z,0.43
2019-02-28T12:34:09.229Z,1.67
2019-02-28T12:36:39.762Z,1.33
2019-02-28T12:39:10.440Z,1.70
2019-02-28T12:41:40.982Z,8.33
2019-02-28T12:44:12.454Z,0.77
2019-02-28T12:46:43.629Z,0.53
2019-02-28T12:49:14.204Z,0.97
2019-02-28T12:51:45.040Z,1.60
2019-02-28T12:54:15.572Z,13.60
2019-02-28T12:56:47.772Z,1.50
2019-02-28T12:59:18.428Z,0.40
2019-02-28T13:01:48.965Z,13.80
2019-02-28T13:04:19.550Z,0.70
2019-02-28T13:06:50.131Z,0.40
2019-02-28T13:09:20.670Z,1.53
2019-02-28T13:11:51.198Z,0.30
2019-02-28T13:14:21.726Z,2.73
2019-02-28T13:16:54.546Z,0.73
2019-02-28T13:19:24.735Z,1.33
2019-02-28T13:21:55.922Z,0.30
2019-02-28T13:24:26.427Z,0.20
2019-02-28T13:26:56.993Z,0.50
2019-02-28T13:29:28.818Z,0.60
2019-02-28T13:32:01.443Z,10.40
2019-02-28T13:34:31.850Z,1.30
2019-02-28T13:37:03.226Z,0.70
2019-02-28T13:39:33.856Z,0.30
2019-02-28T13:42:04.388Z,0.23
2019-02-28T13:44:36.321Z,0.97
2019-02-28T13:47:09.885Z,0.30
2019-02-28T13:49:39.226Z,1.60
2019-02-28T13:52:09.746Z,0.50
2019-02-28T13:54:42.122Z,6.40
2019-02-28T13:57:12.534Z,0.73
2019-02-28T13:59:43.028Z,0.13
2019-02-28T14:02:13.751Z,0.60
2019-02-28T14:04:44.764Z,6.20
2019-02-28T14:07:15.324Z,0.77
2019-02-28T14:09:45.851Z,0.20
2019-02-28T14:12:20.055Z,1.93
2019-02-28T14:14:49.116Z,0.27
2019-02-28T14:17:19.658Z,0.20
2019-02-28T14:19:52.685Z,0.20
2019-02-28T14:22:24.879Z,0.83
2019-02-28T14:24:57.679Z,1.25
2019-02-28T14:27:28.252Z,0.97
2019-02-28T14:29:58.785Z,0.30
2019-02-28T14:32:29.328Z,0.20
2019-02-28T14:34:59.988Z,0.67
2019-02-28T14:37:31.190Z,2.23
2019-02-28T14:40:01.717Z,0.87
2019-02-28T14:42:32.280Z,0.30
2019-02-28T14:45:03.956Z,0.43
2019-02-28T14:47:34.992Z,0.20
2019-02-28T14:50:06.410Z,0.30
2019-02-28T14:52:39.364Z,0.20
2019-02-28T14:55:12.512Z,2.57
2019-02-28T14:57:43.042Z,2.07
2019-02-28T15:00:16.017Z,0.30
2019-02-28T15:02:46.642Z,3.60
2019-02-28T15:05:20.481Z,0.23
2019-02-28T15:07:49.324Z,1.50
2019-02-28T15:10:20.264Z,0.93
2019-02-28T15:12:50.823Z,0.30
2019-02-28T15:15:21.459Z,6.47
2019-02-28T15:17:52.017Z,0.53
2019-02-28T15:20:22.591Z,1.27
2019-02-28T15:22:55.712Z,0.40
2019-02-28T15:25:25.410Z,1.23
2019-02-28T15:27:57.382Z,0.63
2019-02-28T15:30:33.881Z,2.50
2019-02-28T15:33:03.303Z,1.93
2019-02-28T15:35:33.829Z,0.83
2019-02-28T15:38:05.704Z,2.37
2019-02-28T15:40:37.510Z,1.37
2019-02-28T15:43:08.043Z,1.03
2019-02-28T15:45:39.531Z,0.27
2019-02-28T15:48:10.039Z,0.50
2019-02-28T15:50:40.552Z,0.10
2019-02-28T15:53:14.206Z,0.10
2019-02-28T15:55:43.239Z,0.30
2019-02-28T15:58:13.831Z,0.30
2019-02-28T16:00:44.455Z,0.47
2019-02-28T16:03:16.637Z,0.20
2019-02-28T16:05:47.164Z,0.20
2019-02-28T16:08:17.714Z,0.40
2019-02-28T16:10:53.222Z,0.20
2019-02-28T16:13:22.644Z,0.30
2019-02-28T16:15:53.959Z,0.20
2019-02-28T16:18:24.948Z,3.03
2019-02-28T16:20:55.505Z,0.87
2019-02-28T16:23:27.624Z,0.20
2019-02-28T16:25:58.582Z,1.40
2019-02-28T16:28:29.147Z,2.13
2019-02-28T16:30:59.663Z,0.20
2019-02-28T16:33:30.180Z,8.10
2019-02-28T16:36:00.792Z,0.40
2019-02-28T16:38:31.326Z,0.30
2019-02-28T16:41:01.884Z,1.73
2019-02-28T16:43:33.943Z,5.00
2019-02-28T16:46:04.627Z,0.87
2019-02-28T16:48:36.491Z,0.10
2019-02-28T16:51:07.288Z,1.50
2019-02-28T16:53:37.792Z,0.30
2019-02-28T16:56:08.337Z,3.00
2019-02-28T16:58:38.900Z,0.47
2019-02-28T17:01:09.631Z,0.67
2019-02-28T17:03:41.765Z,1.37
2019-02-28T17:06:12.842Z,0.30
2019-02-28T17:08:55.325Z,3.40
2019-02-28T17:11:25.929Z,0.93
2019-02-28T17:14:10.319Z,0.30
2019-02-28T17:17:03.417Z,0.72
2019-02-28T17:19:33.900Z,1.47
2019-02-28T17:22:04.468Z,4.67
2019-02-28T17:24:34.997Z,1.13
2019-02-28T17:27:33.327Z,0.47
2019-02-28T17:30:25.921Z,32.00
2019-02-28T17:32:56.556Z,0.20
2019-02-28T17:35:30.666Z,0.77
2019-02-28T17:38:00.967Z,0.57
2019-02-28T17:40:31.508Z,1.80
2019-02-28T17:43:02.047Z,1.13
2019-02-28T17:45:36.433Z,268.95
2019-02-28T17:48:41.888Z,89.03
2019-02-28T17:51:26.695Z,7.20
2019-02-28T17:54:40.212Z,2.83
2019-02-28T17:57:34.713Z,3.30
2019-02-28T18:00:58.419Z,14.37
2019-02-28T18:04:14.322Z,11.10
2019-02-28T18:07:25.778Z,9.57
2019-02-28T18:10:35.235Z,11.70
2019-02-28T18:13:45.043Z,22.63
2019-02-28T18:16:58.581Z,23.60
2019-02-28T18:20:18.336Z,16.70
2019-02-28T18:23:44.987Z,10.03
2019-02-28T18:26:56.824Z,15.03
2019-02-28T18:30:10.146Z,1.13
2019-02-28T18:32:40.638Z,0.30
2019-02-28T18:35:11.159Z,1.27
2019-02-28T18:37:49.429Z,0.80
2019-02-28T18:40:35.765Z,0.80
2019-02-28T18:43:06.419Z,3.67
2019-02-28T18:45:36.959Z,1.42
2019-02-28T18:48:07.619Z,1.00
2019-02-28T18:50:38.179Z,2.60
2019-02-28T18:53:08.726Z,3.73
2019-02-28T18:55:39.264Z,0.93
2019-02-28T18:58:09.785Z,1.67
2019-02-28T19:00:40.320Z,1.20
2019-02-28T19:03:12.789Z,0.87
2019-02-28T19:05:43.340Z,1.60
2019-02-28T19:08:13.892Z,0.50
2019-02-28T19:10:44.432Z,1.00
2019-02-28T19:13:15.398Z,6.77
2019-02-28T19:15:45.917Z,10.77
2019-02-28T19:18:16.491Z,5.57
2019-02-28T19:20:47.046Z,3.73
2019-02-28T19:23:17.540Z,15.87
2019-02-28T19:25:48.041Z,1.60
2019-02-28T19:28:18.629Z,0.60
2019-02-28T19:30:49.160Z,5.70
2019-02-28T19:33:19.695Z,1.40
2019-02-28T19:35:50.357Z,0.33
2019-02-28T19:38:20.920Z,0.73
2019-02-28T19:40:51.420Z,13.43
2019-02-28T19:43:22.318Z,3.83
2019-02-28T19:45:53.469Z,1.30
2019-02-28T19:48:24.115Z,3.07
2019-02-28T19:50:54.681Z,3.40
2019-02-28T19:53:25.726Z,5.73
2019-02-28T19:55:56.816Z,3.10
2019-02-28T19:58:27.787Z,0.87
2019-02-28T20:00:58.771Z,1.43
2019-02-28T20:03:29.325Z,1.30
2019-02-28T20:06:02.482Z,0.63
2019-02-28T20:08:33.020Z,2.53
2019-02-28T20:11:03.579Z,2.97
2019-02-28T20:13:34.216Z,11.12
2019-02-28T20:16:04.742Z,3.87
2019-02-28T20:18:35.252Z,1.62
2019-02-28T20:21:05.915Z,3.33
2019-02-28T20:23:36.443Z,1.37
2019-02-28T20:26:06.988Z,2.53
2019-02-28T20:28:37.632Z,30.77
2019-02-28T20:31:08.664Z,0.70
2019-02-28T20:33:39.284Z,53.97
2019-02-28T20:36:09.807Z,29.40
2019-02-28T20:38:40.392Z,3.17
2019-02-28T20:41:11.242Z,14.70
2019-02-28T20:43:41.830Z,6.00
2019-02-28T20:46:12.359Z,7.50
2019-02-28T20:48:43.559Z,3.77
2019-02-28T20:51:14.176Z,3.43
2019-02-28T20:53:44.707Z,3.12
2019-02-28T20:56:15.272Z,7.27
2019-02-28T20:58:45.839Z,17.65
2019-02-28T21:01:17.534Z,17.33
2019-02-28T21:03:48.240Z,5.97
2019-02-28T21:06:18.943Z,3.27
2019-02-28T21:08:49.484Z,3.75
2019-02-28T21:11:20.021Z,6.20
2019-02-28T21:13:50.566Z,8.37
2019-02-28T21:16:21.080Z,5.93
2019-02-28T21:18:51.613Z,5.30
2019-02-28T21:21:22.384Z,9.37
2019-02-28T21:23:52.902Z,4.30
2019-02-28T21:26:23.391Z,6.43
2019-02-28T21:28:53.965Z,4.77
2019-02-28T21:31:24.521Z,4.00
2019-02-28T21:33:55.119Z,4.27
2019-02-28T21:36:25.651Z,2.57
2019-02-28T21:38:56.162Z,14.13
2019-02-28T21:41:26.741Z,67.07
2019-02-28T21:43:57.273Z,124.63
2019-02-28T21:46:27.866Z,8.53
2019-02-28T21:48:58.748Z,1.60
2019-02-28T21:51:29.981Z,1.30
2019-02-28T21:54:00.498Z,1.67
2019-02-28T21:56:31.052Z,1.10
2019-02-28T21:59:01.595Z,2.07
2019-02-28T22:01:32.099Z,2.50
2019-02-28T22:04:02.639Z,1.97
2019-02-28T22:06:33.687Z,7.63
2019-02-28T22:09:05.213Z,11.27
2019-02-28T22:11:35.897Z,7.63
2019-02-28T22:14:06.472Z,7.67
2019-02-28T22:16:36.990Z,7.92
2019-02-28T22:19:07.513Z,6.40
2019-02-28T22:21:38.031Z,6.22
2019-02-28T22:24:08.586Z,5.03
2019-02-28T22:26:39.099Z,4.12
2019-02-28T22:29:09.615Z,5.17
2019-02-28T22:31:59.148Z,8.33
2019-02-28T22:34:38.584Z,3.27
2019-02-28T22:37:09.147Z,4.03
2019-02-28T22:39:39.675Z,3.37
2019-02-28T22:42:21.375Z,4.20
2019-02-28T22:44:42.550Z,3.27
2019-02-28T22:47:13.117Z,4.70
2019-02-28T22:49:43.702Z,7.20
2019-02-28T22:52:14.236Z,6.00
2019-02-28T22:54:44.780Z,3.98
2019-02-28T22:57:18.415Z,3.53
2019-02-28T22:59:48.995Z,5.23
2019-02-28T23:02:21.490Z,3.83
2019-02-28T23:04:52.064Z,1.90
2019-02-28T23:07:22.972Z,5.57
2019-02-28T23:09:53.572Z,2.40
2019-02-28T23:12:24.134Z,3.33
2019-02-28T23:14:54.678Z,2.07
2019-02-28T23:17:25.207Z,3.50
2019-02-28T23:19:55.779Z,1.77
2019-02-28T23:22:26.337Z,1.43
2019-02-28T23:24:56.918Z,1.00
2019-02-28T23:27:27.530Z,1.73
2019-02-28T23:30:19.236Z,3.00
2019-02-28T23:33:03.787Z,1.60
2019-02-28T23:35:37.200Z,2.33
2019-02-28T23:38:07.792Z,2.87
2019-02-28T23:40:38.376Z,1.70
2019-02-28T23:43:09.285Z,2.07
2019-02-28T23:45:39.818Z,4.87
2019-02-28T23:48:10.350Z,3.97
2019-02-28T23:50:41.287Z,5.25
2019-02-28T23:53:11.869Z,5.73
2019-02-28T23:55:42.476Z,1.82
2019-02-28T23:58:13.027Z,1.60
